sensor_id;sensor_type;location;lat;lon;timestamp;P1;durP1;ratioP1;P2;durP2;ratioP2
78612;SDS011;67933;51.060;3.638;2023-02-26T00:00:28;4.95;;;1.92;;
78612;SDS011;67933;51.060;3.638;2023-02-26T00:02:54;6.80;;;2.30;;
78612;SDS011;67933;51.060;3.638;2023-02-26T00:05:20;6.32;;;2.22;;
78612;SDS011;67933;51.060;3.638;2023-02-26T00:07:45;6.03;;;1.90;;
78612;SDS011;67933;51.060;3.638;2023-02-26T00:10:11;8.50;;;2.47;;
78612;SDS011;67933;51.060;3.638;2023-02-26T00:12:38;2.20;;;1.67;;
78612;SDS011;67933;51.060;3.638;2023-02-26T00:15:04;8.48;;;2.75;;
78612;SDS011;67933;51.060;3.638;2023-02-26T00:20:00;3.75;;;1.38;;
78612;SDS011;67933;51.060;3.638;2023-02-26T00:22:26;4.28;;;1.88;;
78612;SDS011;67933;51.060;3.638;2023-02-26T00:24:52;4.93;;;2.40;;
78612;SDS011;67933;51.060;3.638;2023-02-26T00:27:18;4.13;;;1.40;;
78612;SDS011;67933;51.060;3.638;2023-02-26T00:29:44;6.45;;;2.13;;
78612;SDS011;67933;51.060;3.638;2023-02-26T00:32:10;4.43;;;1.90;;
78612;SDS011;67933;51.060;3.638;2023-02-26T00:34:36;4.15;;;1.50;;
78612;SDS011;67933;51.060;3.638;2023-02-26T00:37:11;3.63;;;1.35;;
78612;SDS011;67933;51.060;3.638;2023-02-26T00:39:52;2.00;;;1.40;;
78612;SDS011;67933;51.060;3.638;2023-02-26T00:44:44;7.15;;;1.77;;
78612;SDS011;67933;51.060;3.638;2023-02-26T00:47:19;3.50;;;1.50;;
78612;SDS011;67933;51.060;3.638;2023-02-26T00:53:12;3.95;;;1.50;;
78612;SDS011;67933;51.060;3.638;2023-02-26T00:55:25;6.20;;;1.80;;
78612;SDS011;67933;51.060;3.638;2023-02-26T00:57:50;3.63;;;1.88;;
78612;SDS011;67933;51.060;3.638;2023-02-26T01:00:16;3.47;;;1.60;;
78612;SDS011;67933;51.060;3.638;2023-02-26T01:02:41;4.80;;;1.63;;
78612;SDS011;67933;51.060;3.638;2023-02-26T01:05:08;6.05;;;1.63;;
78612;SDS011;67933;51.060;3.638;2023-02-26T01:07:42;5.07;;;1.60;;
78612;SDS011;67933;51.060;3.638;2023-02-26T01:10:18;4.00;;;1.55;;
78612;SDS011;67933;51.060;3.638;2023-02-26T01:12:44;2.92;;;1.67;;
78612;SDS011;67933;51.060;3.638;2023-02-26T01:15:10;17.48;;;2.72;;
78612;SDS011;67933;51.060;3.638;2023-02-26T01:17:43;5.40;;;1.77;;
78612;SDS011;67933;51.060;3.638;2023-02-26T01:20:30;5.95;;;1.58;;
78612;SDS011;67933;51.060;3.638;2023-02-26T01:23:02;3.90;;;1.85;;
78612;SDS011;67933;51.060;3.638;2023-02-26T01:28:21;4.25;;;1.38;;
78612;SDS011;67933;51.060;3.638;2023-02-26T01:30:47;4.72;;;1.33;;
78612;SDS011;67933;51.060;3.638;2023-02-26T01:43:54;3.20;;;1.30;;
78612;SDS011;67933;51.060;3.638;2023-02-26T01:46:53;1.20;;;0.88;;
78612;SDS011;67933;51.060;3.638;2023-02-26T01:49:30;3.45;;;1.33;;
78612;SDS011;67933;51.060;3.638;2023-02-26T01:51:57;7.80;;;1.58;;
78612;SDS011;67933;51.060;3.638;2023-02-26T01:54:28;5.10;;;1.40;;
78612;SDS011;67933;51.060;3.638;2023-02-26T01:56:58;5.63;;;2.55;;
78612;SDS011;67933;51.060;3.638;2023-02-26T01:59:30;2.75;;;0.90;;
78612;SDS011;67933;51.060;3.638;2023-02-26T02:01:57;5.03;;;1.08;;
78612;SDS011;67933;51.060;3.638;2023-02-26T02:04:26;4.13;;;1.02;;
78612;SDS011;67933;51.060;3.638;2023-02-26T02:06:52;4.25;;;1.10;;
78612;SDS011;67933;51.060;3.638;2023-02-26T02:09:18;6.53;;;1.55;;
78612;SDS011;67933;51.060;3.638;2023-02-26T02:12:31;4.78;;;1.00;;
78612;SDS011;67933;51.060;3.638;2023-02-26T02:30:59;4.88;;;1.40;;
78612;SDS011;67933;51.060;3.638;2023-02-26T02:33:33;3.90;;;1.02;;
78612;SDS011;67933;51.060;3.638;2023-02-26T02:36:12;2.92;;;0.93;;
78612;SDS011;67933;51.060;3.638;2023-02-26T02:41:21;3.58;;;1.20;;
78612;SDS011;67933;51.060;3.638;2023-02-26T02:43:51;5.55;;;1.13;;
78612;SDS011;67933;51.060;3.638;2023-02-26T02:46:21;4.93;;;1.20;;
78612;SDS011;67933;51.060;3.638;2023-02-26T02:49:00;2.72;;;0.90;;
78612;SDS011;67933;51.060;3.638;2023-02-26T02:51:30;1.73;;;0.88;;
78612;SDS011;67933;51.060;3.638;2023-02-26T02:54:05;3.45;;;0.88;;
78612;SDS011;67933;51.060;3.638;2023-02-26T02:56:36;4.95;;;1.13;;
78612;SDS011;67933;51.060;3.638;2023-02-26T02:59:18;2.10;;;1.00;;
78612;SDS011;67933;51.060;3.638;2023-02-26T03:01:59;5.97;;;1.00;;
78612;SDS011;67933;51.060;3.638;2023-02-26T03:04:36;3.47;;;1.08;;
78612;SDS011;67933;51.060;3.638;2023-02-26T03:07:02;5.55;;;0.95;;
78612;SDS011;67933;51.060;3.638;2023-02-26T03:09:28;5.78;;;1.08;;
78612;SDS011;67933;51.060;3.638;2023-02-26T03:11:53;3.97;;;0.90;;
78612;SDS011;67933;51.060;3.638;2023-02-26T03:14:19;1.52;;;0.90;;
78612;SDS011;67933;51.060;3.638;2023-02-26T03:16:56;3.80;;;1.10;;
78612;SDS011;67933;51.060;3.638;2023-02-26T03:22:26;3.25;;;0.80;;
78612;SDS011;67933;51.060;3.638;2023-02-26T03:25:14;1.35;;;0.70;;
78612;SDS011;67933;51.060;3.638;2023-02-26T03:30:29;2.33;;;0.75;;
78612;SDS011;67933;51.060;3.638;2023-02-26T03:33:08;5.00;;;1.08;;
78612;SDS011;67933;51.060;3.638;2023-02-26T03:35:49;2.75;;;0.75;;
78612;SDS011;67933;51.060;3.638;2023-02-26T03:38:36;3.00;;;1.00;;
78612;SDS011;67933;51.060;3.638;2023-02-26T03:41:08;4.00;;;1.02;;
78612;SDS011;67933;51.060;3.638;2023-02-26T03:43:41;3.35;;;1.00;;
78612;SDS011;67933;51.060;3.638;2023-02-26T03:46:41;3.25;;;1.00;;
78612;SDS011;67933;51.060;3.638;2023-02-26T03:49:11;4.20;;;0.77;;
78612;SDS011;67933;51.060;3.638;2023-02-26T03:51:42;3.42;;;1.23;;
78612;SDS011;67933;51.060;3.638;2023-02-26T03:54:20;2.33;;;1.10;;
78612;SDS011;67933;51.060;3.638;2023-02-26T03:57:09;4.75;;;1.10;;
78612;SDS011;67933;51.060;3.638;2023-02-26T03:59:35;6.03;;;1.30;;
78612;SDS011;67933;51.060;3.638;2023-02-26T04:02:14;2.90;;;0.88;;
78612;SDS011;67933;51.060;3.638;2023-02-26T04:04:54;1.77;;;1.30;;
78612;SDS011;67933;51.060;3.638;2023-02-26T04:07:24;2.53;;;1.20;;
78612;SDS011;67933;51.060;3.638;2023-02-26T04:09:50;3.90;;;0.95;;
78612;SDS011;67933;51.060;3.638;2023-02-26T04:12:23;5.43;;;1.02;;
78612;SDS011;67933;51.060;3.638;2023-02-26T04:14:50;3.38;;;1.30;;
78612;SDS011;67933;51.060;3.638;2023-02-26T04:17:16;4.55;;;1.60;;
78612;SDS011;67933;51.060;3.638;2023-02-26T04:19:42;7.65;;;1.38;;
78612;SDS011;67933;51.060;3.638;2023-02-26T04:22:07;4.45;;;0.85;;
78612;SDS011;67933;51.060;3.638;2023-02-26T04:24:33;3.38;;;0.75;;
78612;SDS011;67933;51.060;3.638;2023-02-26T04:26:58;3.45;;;1.08;;
78612;SDS011;67933;51.060;3.638;2023-02-26T04:29:24;2.90;;;1.20;;
78612;SDS011;67933;51.060;3.638;2023-02-26T04:31:49;3.30;;;1.73;;
78612;SDS011;67933;51.060;3.638;2023-02-26T04:34:14;3.78;;;1.10;;
78612;SDS011;67933;51.060;3.638;2023-02-26T04:36:40;6.75;;;2.17;;
78612;SDS011;67933;51.060;3.638;2023-02-26T04:39:05;4.65;;;1.13;;
78612;SDS011;67933;51.060;3.638;2023-02-26T04:41:31;11.43;;;2.67;;
78612;SDS011;67933;51.060;3.638;2023-02-26T04:43:56;5.10;;;1.80;;
78612;SDS011;67933;51.060;3.638;2023-02-26T04:46:22;4.97;;;1.90;;
78612;SDS011;67933;51.060;3.638;2023-02-26T04:48:47;3.78;;;1.27;;
78612;SDS011;67933;51.060;3.638;2023-02-26T04:51:13;3.65;;;1.00;;
78612;SDS011;67933;51.060;3.638;2023-02-26T04:53:38;4.32;;;1.00;;
78612;SDS011;67933;51.060;3.638;2023-02-26T04:56:04;4.60;;;1.40;;
78612;SDS011;67933;51.060;3.638;2023-02-26T04:58:30;3.00;;;0.77;;
78612;SDS011;67933;51.060;3.638;2023-02-26T05:00:56;0.75;;;0.50;;
78612;SDS011;67933;51.060;3.638;2023-02-26T05:03:21;2.33;;;1.30;;
78612;SDS011;67933;51.060;3.638;2023-02-26T05:05:48;3.03;;;0.95;;
78612;SDS011;67933;51.060;3.638;2023-02-26T05:08:14;1.73;;;0.70;;
78612;SDS011;67933;51.060;3.638;2023-02-26T05:10:39;5.35;;;0.90;;
78612;SDS011;67933;51.060;3.638;2023-02-26T05:13:04;0.63;;;0.60;;
78612;SDS011;67933;51.060;3.638;2023-02-26T05:15:30;3.70;;;0.70;;
78612;SDS011;67933;51.060;3.638;2023-02-26T05:17:56;3.13;;;0.90;;
78612;SDS011;67933;51.060;3.638;2023-02-26T05:20:22;3.22;;;0.65;;
78612;SDS011;67933;51.060;3.638;2023-02-26T05:22:47;0.85;;;0.43;;
78612;SDS011;67933;51.060;3.638;2023-02-26T05:25:12;2.00;;;0.63;;
78612;SDS011;67933;51.060;3.638;2023-02-26T05:27:38;4.70;;;1.02;;
78612;SDS011;67933;51.060;3.638;2023-02-26T05:30:05;2.75;;;0.60;;
78612;SDS011;67933;51.060;3.638;2023-02-26T05:32:31;3.92;;;0.73;;
78612;SDS011;67933;51.060;3.638;2023-02-26T05:34:56;6.60;;;0.77;;
78612;SDS011;67933;51.060;3.638;2023-02-26T05:37:22;2.15;;;0.88;;
78612;SDS011;67933;51.060;3.638;2023-02-26T05:39:47;1.50;;;0.80;;
78612;SDS011;67933;51.060;3.638;2023-02-26T05:42:13;3.28;;;0.50;;
78612;SDS011;67933;51.060;3.638;2023-02-26T05:44:38;3.10;;;0.52;;
78612;SDS011;67933;51.060;3.638;2023-02-26T05:47:04;2.75;;;0.63;;
78612;SDS011;67933;51.060;3.638;2023-02-26T05:49:29;4.22;;;0.80;;
78612;SDS011;67933;51.060;3.638;2023-02-26T05:51:55;2.60;;;0.77;;
78612;SDS011;67933;51.060;3.638;2023-02-26T05:54:20;1.33;;;0.50;;
78612;SDS011;67933;51.060;3.638;2023-02-26T05:56:45;1.48;;;0.47;;
78612;SDS011;67933;51.060;3.638;2023-02-26T05:59:11;1.52;;;0.52;;
78612;SDS011;67933;51.060;3.638;2023-02-26T06:01:36;1.88;;;0.80;;
78612;SDS011;67933;51.060;3.638;2023-02-26T06:04:03;3.13;;;0.82;;
78612;SDS011;67933;51.060;3.638;2023-02-26T06:06:29;4.07;;;0.73;;
78612;SDS011;67933;51.060;3.638;2023-02-26T06:08:54;3.47;;;0.57;;
78612;SDS011;67933;51.060;3.638;2023-02-26T06:11:19;2.28;;;0.68;;
78612;SDS011;67933;51.060;3.638;2023-02-26T06:13:45;3.38;;;0.80;;
78612;SDS011;67933;51.060;3.638;2023-02-26T06:16:10;5.75;;;0.93;;
78612;SDS011;67933;51.060;3.638;2023-02-26T06:18:36;2.47;;;0.63;;
78612;SDS011;67933;51.060;3.638;2023-02-26T06:21:01;6.80;;;1.05;;
78612;SDS011;67933;51.060;3.638;2023-02-26T06:23:27;2.08;;;0.90;;
78612;SDS011;67933;51.060;3.638;2023-02-26T06:25:52;1.90;;;0.80;;
78612;SDS011;67933;51.060;3.638;2023-02-26T06:28:18;2.42;;;1.10;;
78612;SDS011;67933;51.060;3.638;2023-02-26T06:30:44;1.45;;;1.05;;
78612;SDS011;67933;51.060;3.638;2023-02-26T06:33:10;3.00;;;1.25;;
78612;SDS011;67933;51.060;3.638;2023-02-26T06:35:35;3.35;;;1.20;;
78612;SDS011;67933;51.060;3.638;2023-02-26T06:38:01;9.52;;;1.40;;
78612;SDS011;67933;51.060;3.638;2023-02-26T06:40:27;5.70;;;1.40;;
78612;SDS011;67933;51.060;3.638;2023-02-26T06:42:53;2.35;;;1.23;;
78612;SDS011;67933;51.060;3.638;2023-02-26T06:45:18;2.72;;;1.40;;
78612;SDS011;67933;51.060;3.638;2023-02-26T06:47:44;5.00;;;1.63;;
78612;SDS011;67933;51.060;3.638;2023-02-26T06:50:10;3.75;;;1.42;;
78612;SDS011;67933;51.060;3.638;2023-02-26T06:52:35;3.13;;;1.85;;
78612;SDS011;67933;51.060;3.638;2023-02-26T06:55:01;3.67;;;1.33;;
78612;SDS011;67933;51.060;3.638;2023-02-26T06:57:28;2.65;;;1.30;;
78612;SDS011;67933;51.060;3.638;2023-02-26T06:59:53;3.53;;;1.33;;
78612;SDS011;67933;51.060;3.638;2023-02-26T07:02:19;2.22;;;0.90;;
78612;SDS011;67933;51.060;3.638;2023-02-26T07:04:46;2.95;;;0.90;;
78612;SDS011;67933;51.060;3.638;2023-02-26T07:07:11;3.13;;;1.10;;
78612;SDS011;67933;51.060;3.638;2023-02-26T07:09:37;4.30;;;1.30;;
78612;SDS011;67933;51.060;3.638;2023-02-26T07:12:03;2.17;;;1.00;;
78612;SDS011;67933;51.060;3.638;2023-02-26T07:14:28;3.78;;;1.08;;
78612;SDS011;67933;51.060;3.638;2023-02-26T07:16:55;2.42;;;1.27;;
78612;SDS011;67933;51.060;3.638;2023-02-26T07:19:20;4.03;;;1.65;;
78612;SDS011;67933;51.060;3.638;2023-02-26T07:21:46;3.83;;;1.33;;
78612;SDS011;67933;51.060;3.638;2023-02-26T07:24:12;3.28;;;1.67;;
78612;SDS011;67933;51.060;3.638;2023-02-26T07:26:38;7.43;;;1.73;;
78612;SDS011;67933;51.060;3.638;2023-02-26T07:29:04;3.35;;;1.52;;
78612;SDS011;67933;51.060;3.638;2023-02-26T07:31:29;3.55;;;1.27;;
78612;SDS011;67933;51.060;3.638;2023-02-26T07:33:55;5.13;;;1.23;;
78612;SDS011;67933;51.060;3.638;2023-02-26T07:36:21;3.80;;;1.30;;
78612;SDS011;67933;51.060;3.638;2023-02-26T07:38:46;5.60;;;2.03;;
78612;SDS011;67933;51.060;3.638;2023-02-26T07:41:11;3.90;;;1.02;;
78612;SDS011;67933;51.060;3.638;2023-02-26T07:43:37;3.17;;;0.80;;
78612;SDS011;67933;51.060;3.638;2023-02-26T07:46:02;6.32;;;1.20;;
78612;SDS011;67933;51.060;3.638;2023-02-26T07:48:28;4.50;;;0.90;;
78612;SDS011;67933;51.060;3.638;2023-02-26T07:50:54;2.08;;;0.50;;
78612;SDS011;67933;51.060;3.638;2023-02-26T07:53:19;2.72;;;0.73;;
78612;SDS011;67933;51.060;3.638;2023-02-26T07:55:45;3.72;;;0.55;;
78612;SDS011;67933;51.060;3.638;2023-02-26T07:58:11;2.42;;;0.70;;
78612;SDS011;67933;51.060;3.638;2023-02-26T08:00:36;2.25;;;0.70;;
78612;SDS011;67933;51.060;3.638;2023-02-26T08:03:02;2.28;;;0.70;;
78612;SDS011;67933;51.060;3.638;2023-02-26T08:05:27;3.55;;;0.70;;
78612;SDS011;67933;51.060;3.638;2023-02-26T08:07:53;3.47;;;1.00;;
78612;SDS011;67933;51.060;3.638;2023-02-26T08:10:18;1.85;;;0.90;;
78612;SDS011;67933;51.060;3.638;2023-02-26T08:12:43;3.00;;;0.93;;
78612;SDS011;67933;51.060;3.638;2023-02-26T08:15:09;2.53;;;1.15;;
78612;SDS011;67933;51.060;3.638;2023-02-26T08:17:37;3.08;;;1.02;;
78612;SDS011;67933;51.060;3.638;2023-02-26T08:20:02;1.98;;;0.88;;
78612;SDS011;67933;51.060;3.638;2023-02-26T08:22:29;1.35;;;0.50;;
78612;SDS011;67933;51.060;3.638;2023-02-26T08:24:54;2.75;;;1.13;;
78612;SDS011;67933;51.060;3.638;2023-02-26T08:27:20;2.88;;;1.15;;
78612;SDS011;67933;51.060;3.638;2023-02-26T08:29:45;4.18;;;0.95;;
78612;SDS011;67933;51.060;3.638;2023-02-26T08:32:11;2.88;;;1.33;;
78612;SDS011;67933;51.060;3.638;2023-02-26T08:34:37;3.65;;;1.08;;
78612;SDS011;67933;51.060;3.638;2023-02-26T08:37:02;4.72;;;1.45;;
78612;SDS011;67933;51.060;3.638;2023-02-26T08:39:27;2.97;;;1.05;;
78612;SDS011;67933;51.060;3.638;2023-02-26T08:41:56;2.97;;;1.13;;
78612;SDS011;67933;51.060;3.638;2023-02-26T08:44:22;3.03;;;0.98;;
78612;SDS011;67933;51.060;3.638;2023-02-26T08:46:47;2.83;;;1.00;;
78612;SDS011;67933;51.060;3.638;2023-02-26T08:49:13;2.03;;;1.38;;
78612;SDS011;67933;51.060;3.638;2023-02-26T08:51:38;4.30;;;1.02;;
78612;SDS011;67933;51.060;3.638;2023-02-26T08:54:03;3.63;;;1.05;;
78612;SDS011;67933;51.060;3.638;2023-02-26T08:56:29;1.02;;;0.57;;
78612;SDS011;67933;51.060;3.638;2023-02-26T08:58:55;2.08;;;1.10;;
78612;SDS011;67933;51.060;3.638;2023-02-26T09:01:21;3.00;;;1.10;;
78612;SDS011;67933;51.060;3.638;2023-02-26T09:03:46;1.60;;;0.80;;
78612;SDS011;67933;51.060;3.638;2023-02-26T09:06:11;2.60;;;0.98;;
78612;SDS011;67933;51.060;3.638;2023-02-26T09:08:37;2.45;;;0.75;;
78612;SDS011;67933;51.060;3.638;2023-02-26T09:11:02;3.10;;;1.10;;
78612;SDS011;67933;51.060;3.638;2023-02-26T09:13:28;1.15;;;0.80;;
78612;SDS011;67933;51.060;3.638;2023-02-26T09:15:54;1.45;;;1.10;;
78612;SDS011;67933;51.060;3.638;2023-02-26T09:18:20;3.63;;;1.10;;
78612;SDS011;67933;51.060;3.638;2023-02-26T09:20:45;2.25;;;0.80;;
78612;SDS011;67933;51.060;3.638;2023-02-26T09:23:11;4.43;;;1.23;;
78612;SDS011;67933;51.060;3.638;2023-02-26T09:25:37;1.95;;;0.75;;
78612;SDS011;67933;51.060;3.638;2023-02-26T09:28:02;0.80;;;0.60;;
78612;SDS011;67933;51.060;3.638;2023-02-26T09:30:28;3.60;;;0.90;;
78612;SDS011;67933;51.060;3.638;2023-02-26T09:32:54;1.77;;;0.63;;
78612;SDS011;67933;51.060;3.638;2023-02-26T09:35:19;2.20;;;0.52;;
78612;SDS011;67933;51.060;3.638;2023-02-26T09:37:44;1.70;;;0.60;;
78612;SDS011;67933;51.060;3.638;2023-02-26T09:40:16;2.20;;;0.32;;
78612;SDS011;67933;51.060;3.638;2023-02-26T09:43:01;1.20;;;0.50;;
78612;SDS011;67933;51.060;3.638;2023-02-26T09:45:37;1.45;;;0.60;;
78612;SDS011;67933;51.060;3.638;2023-02-26T09:48:07;2.47;;;0.73;;
78612;SDS011;67933;51.060;3.638;2023-02-26T09:50:44;1.45;;;0.50;;
78612;SDS011;67933;51.060;3.638;2023-02-26T09:53:15;0.43;;;0.43;;
78612;SDS011;67933;51.060;3.638;2023-02-26T09:55:47;1.63;;;0.63;;
78612;SDS011;67933;51.060;3.638;2023-02-26T10:11:32;1.27;;;1.00;;
78612;SDS011;67933;51.060;3.638;2023-02-26T10:14:09;1.13;;;0.60;;
78612;SDS011;67933;51.060;3.638;2023-02-26T10:16:40;2.25;;;0.88;;
78612;SDS011;67933;51.060;3.638;2023-02-26T10:19:13;2.70;;;0.90;;
78612;SDS011;67933;51.060;3.638;2023-02-26T10:21:43;2.88;;;0.90;;
78612;SDS011;67933;51.060;3.638;2023-02-26T10:24:19;1.23;;;0.70;;
78612;SDS011;67933;51.060;3.638;2023-02-26T10:27:05;1.80;;;0.73;;
78612;SDS011;67933;51.060;3.638;2023-02-26T10:29:43;0.90;;;0.73;;
78612;SDS011;67933;51.060;3.638;2023-02-26T10:34:59;1.92;;;0.80;;
78612;SDS011;67933;51.060;3.638;2023-02-26T10:37:55;2.10;;;0.60;;
78612;SDS011;67933;51.060;3.638;2023-02-26T10:50:59;1.23;;;0.77;;
78612;SDS011;67933;51.060;3.638;2023-02-26T10:53:29;1.00;;;0.63;;
78612;SDS011;67933;51.060;3.638;2023-02-26T10:55:58;1.95;;;0.63;;
78612;SDS011;67933;51.060;3.638;2023-02-26T10:58:29;1.35;;;0.60;;
78612;SDS011;67933;51.060;3.638;2023-02-26T11:00:55;1.08;;;0.80;;
78612;SDS011;67933;51.060;3.638;2023-02-26T11:03:31;2.22;;;0.63;;
78612;SDS011;67933;51.060;3.638;2023-02-26T11:06:00;2.35;;;0.90;;
78612;SDS011;67933;51.060;3.638;2023-02-26T11:11:03;0.82;;;0.60;;
78612;SDS011;67933;51.060;3.638;2023-02-26T11:13:31;1.48;;;0.55;;
78612;SDS011;67933;51.060;3.638;2023-02-26T11:16:00;1.00;;;0.60;;
78612;SDS011;67933;51.060;3.638;2023-02-26T11:18:29;2.25;;;0.70;;
78612;SDS011;67933;51.060;3.638;2023-02-26T11:21:04;0.95;;;0.60;;
78612;SDS011;67933;51.060;3.638;2023-02-26T11:23:31;2.03;;;0.80;;
78612;SDS011;67933;51.060;3.638;2023-02-26T11:26:07;1.73;;;0.70;;
78612;SDS011;67933;51.060;3.638;2023-02-26T11:28:48;4.90;;;0.70;;
78612;SDS011;67933;51.060;3.638;2023-02-26T11:31:17;2.95;;;0.70;;
78612;SDS011;67933;51.060;3.638;2023-02-26T11:33:47;2.45;;;0.55;;
78612;SDS011;67933;51.060;3.638;2023-02-26T11:36:16;2.42;;;0.77;;
78612;SDS011;67933;51.060;3.638;2023-02-26T11:38:44;2.17;;;0.88;;
78612;SDS011;67933;51.060;3.638;2023-02-26T11:41:16;1.85;;;0.57;;
78612;SDS011;67933;51.060;3.638;2023-02-26T11:43:43;2.67;;;0.88;;
78612;SDS011;67933;51.060;3.638;2023-02-26T11:46:12;0.80;;;0.50;;
78612;SDS011;67933;51.060;3.638;2023-02-26T11:48:42;1.40;;;0.50;;
78612;SDS011;67933;51.060;3.638;2023-02-26T11:51:13;1.23;;;0.40;;
78612;SDS011;67933;51.060;3.638;2023-02-26T11:53:52;2.25;;;0.80;;
78612;SDS011;67933;51.060;3.638;2023-02-26T11:56:41;2.25;;;1.02;;
78612;SDS011;67933;51.060;3.638;2023-02-26T11:59:07;1.25;;;0.68;;
78612;SDS011;67933;51.060;3.638;2023-02-26T12:01:43;1.27;;;0.75;;
78612;SDS011;67933;51.060;3.638;2023-02-26T12:04:09;2.92;;;0.70;;
78612;SDS011;67933;51.060;3.638;2023-02-26T12:06:36;1.35;;;0.60;;
78612;SDS011;67933;51.060;3.638;2023-02-26T12:09:02;2.17;;;0.60;;
78612;SDS011;67933;51.060;3.638;2023-02-26T12:14:42;2.15;;;1.02;;
78612;SDS011;67933;51.060;3.638;2023-02-26T12:25:41;0.85;;;0.70;;
78612;SDS011;67933;51.060;3.638;2023-02-26T12:39:26;0.73;;;0.50;;
78612;SDS011;67933;51.060;3.638;2023-02-26T12:50:49;2.40;;;0.50;;
78612;SDS011;67933;51.060;3.638;2023-02-26T12:53:30;1.60;;;0.75;;
78612;SDS011;67933;51.060;3.638;2023-02-26T13:09:03;2.22;;;1.00;;
78612;SDS011;67933;51.060;3.638;2023-02-26T13:16:52;1.13;;;0.90;;
78612;SDS011;67933;51.060;3.638;2023-02-26T13:22:46;0.85;;;0.73;;
78612;SDS011;67933;51.060;3.638;2023-02-26T13:25:16;1.15;;;0.70;;
78612;SDS011;67933;51.060;3.638;2023-02-26T13:28:03;0.88;;;0.70;;
78612;SDS011;67933;51.060;3.638;2023-02-26T13:30:48;1.15;;;0.60;;
78612;SDS011;67933;51.060;3.638;2023-02-26T13:33:18;1.35;;;0.68;;
78612;SDS011;67933;51.060;3.638;2023-02-26T13:35:48;1.30;;;0.77;;
78612;SDS011;67933;51.060;3.638;2023-02-26T13:38:22;1.25;;;0.77;;
78612;SDS011;67933;51.060;3.638;2023-02-26T13:41:03;1.98;;;0.88;;
78612;SDS011;67933;51.060;3.638;2023-02-26T13:46:18;1.55;;;0.80;;
78612;SDS011;67933;51.060;3.638;2023-02-26T13:54:31;1.85;;;0.95;;
78612;SDS011;67933;51.060;3.638;2023-02-26T13:59:58;1.63;;;0.60;;
78612;SDS011;67933;51.060;3.638;2023-02-26T14:02:33;4.30;;;1.20;;
78612;SDS011;67933;51.060;3.638;2023-02-26T14:05:05;1.58;;;0.90;;
78612;SDS011;67933;51.060;3.638;2023-02-26T14:07:53;2.15;;;1.10;;
78612;SDS011;67933;51.060;3.638;2023-02-26T14:16:27;1.05;;;0.60;;
78612;SDS011;67933;51.060;3.638;2023-02-26T14:23:55;0.88;;;0.70;;
78612;SDS011;67933;51.060;3.638;2023-02-26T14:26:23;1.55;;;0.52;;
78612;SDS011;67933;51.060;3.638;2023-02-26T14:28:55;0.60;;;0.45;;
78612;SDS011;67933;51.060;3.638;2023-02-26T14:31:51;1.35;;;0.70;;
78612;SDS011;67933;51.060;3.638;2023-02-26T14:34:24;2.42;;;0.43;;
78612;SDS011;67933;51.060;3.638;2023-02-26T14:36:55;5.47;;;1.10;;
78612;SDS011;67933;51.060;3.638;2023-02-26T14:41:55;1.73;;;0.52;;
78612;SDS011;67933;51.060;3.638;2023-02-26T14:44:27;3.00;;;1.08;;
78612;SDS011;67933;51.060;3.638;2023-02-26T14:46:55;1.08;;;0.70;;
78612;SDS011;67933;51.060;3.638;2023-02-26T14:49:31;4.30;;;0.85;;
78612;SDS011;67933;51.060;3.638;2023-02-26T14:52:03;4.00;;;0.80;;
78612;SDS011;67933;51.060;3.638;2023-02-26T15:00:11;1.58;;;0.68;;
78612;SDS011;67933;51.060;3.638;2023-02-26T15:05:29;4.13;;;0.90;;
78612;SDS011;67933;51.060;3.638;2023-02-26T15:08:08;2.03;;;0.65;;
78612;SDS011;67933;51.060;3.638;2023-02-26T15:10:43;1.75;;;1.15;;
78612;SDS011;67933;51.060;3.638;2023-02-26T15:13:48;1.15;;;0.90;;
78612;SDS011;67933;51.060;3.638;2023-02-26T15:24:11;1.42;;;0.50;;
78612;SDS011;67933;51.060;3.638;2023-02-26T15:26:49;1.85;;;0.98;;
78612;SDS011;67933;51.060;3.638;2023-02-26T15:29:17;2.63;;;0.80;;
78612;SDS011;67933;51.060;3.638;2023-02-26T15:31:53;3.33;;;0.50;;
78612;SDS011;67933;51.060;3.638;2023-02-26T15:34:21;2.97;;;0.82;;
78612;SDS011;67933;51.060;3.638;2023-02-26T15:36:50;1.92;;;0.63;;
78612;SDS011;67933;51.060;3.638;2023-02-26T15:39:17;1.73;;;0.57;;
78612;SDS011;67933;51.060;3.638;2023-02-26T15:41:44;2.72;;;0.63;;
78612;SDS011;67933;51.060;3.638;2023-02-26T15:44:17;2.22;;;0.57;;
78612;SDS011;67933;51.060;3.638;2023-02-26T15:46:45;0.98;;;0.52;;
78612;SDS011;67933;51.060;3.638;2023-02-26T15:49:16;1.85;;;0.60;;
78612;SDS011;67933;51.060;3.638;2023-02-26T15:51:48;1.35;;;0.68;;
78612;SDS011;67933;51.060;3.638;2023-02-26T15:54:18;0.70;;;0.40;;
78612;SDS011;67933;51.060;3.638;2023-02-26T15:56:47;1.25;;;1.08;;
78612;SDS011;67933;51.060;3.638;2023-02-26T15:59:24;2.17;;;0.45;;
78612;SDS011;67933;51.060;3.638;2023-02-26T16:01:53;1.15;;;0.40;;
78612;SDS011;67933;51.060;3.638;2023-02-26T16:04:20;1.77;;;0.50;;
78612;SDS011;67933;51.060;3.638;2023-02-26T16:06:56;1.80;;;1.00;;
78612;SDS011;67933;51.060;3.638;2023-02-26T16:09:30;0.90;;;0.55;;
78612;SDS011;67933;51.060;3.638;2023-02-26T16:12:08;0.50;;;0.30;;
78612;SDS011;67933;51.060;3.638;2023-02-26T16:14:40;1.17;;;0.50;;
78612;SDS011;67933;51.060;3.638;2023-02-26T16:17:11;1.27;;;0.55;;
78612;SDS011;67933;51.060;3.638;2023-02-26T16:19:43;1.00;;;0.50;;
78612;SDS011;67933;51.060;3.638;2023-02-26T16:22:22;1.35;;;0.65;;
78612;SDS011;67933;51.060;3.638;2023-02-26T16:24:53;2.20;;;0.68;;
78612;SDS011;67933;51.060;3.638;2023-02-26T16:27:30;2.40;;;0.70;;
78612;SDS011;67933;51.060;3.638;2023-02-26T16:29:56;2.08;;;0.73;;
78612;SDS011;67933;51.060;3.638;2023-02-26T16:32:25;1.70;;;0.82;;
78612;SDS011;67933;51.060;3.638;2023-02-26T16:34:54;1.30;;;0.50;;
78612;SDS011;67933;51.060;3.638;2023-02-26T16:39:46;0.80;;;0.50;;
78612;SDS011;67933;51.060;3.638;2023-02-26T16:42:21;3.58;;;1.00;;
78612;SDS011;67933;51.060;3.638;2023-02-26T16:45:17;1.33;;;0.80;;
78612;SDS011;67933;51.060;3.638;2023-02-26T16:47:45;2.20;;;1.20;;
78612;SDS011;67933;51.060;3.638;2023-02-26T16:50:16;2.95;;;1.17;;
78612;SDS011;67933;51.060;3.638;2023-02-26T16:52:45;1.50;;;0.80;;
78612;SDS011;67933;51.060;3.638;2023-02-26T16:55:16;1.42;;;0.80;;
78612;SDS011;67933;51.060;3.638;2023-02-26T16:57:42;1.52;;;1.00;;
78612;SDS011;67933;51.060;3.638;2023-02-26T17:00:14;3.83;;;1.00;;
78612;SDS011;67933;51.060;3.638;2023-02-26T17:02:41;1.67;;;0.60;;
78612;SDS011;67933;51.060;3.638;2023-02-26T17:05:16;1.33;;;0.70;;
78612;SDS011;67933;51.060;3.638;2023-02-26T17:07:53;1.55;;;0.90;;
78612;SDS011;67933;51.060;3.638;2023-02-26T17:10:34;2.03;;;0.73;;
78612;SDS011;67933;51.060;3.638;2023-02-26T17:13:18;3.30;;;1.60;;
78612;SDS011;67933;51.060;3.638;2023-02-26T17:15:49;3.72;;;1.73;;
78612;SDS011;67933;51.060;3.638;2023-02-26T17:18:18;1.75;;;0.90;;
78612;SDS011;67933;51.060;3.638;2023-02-26T17:20:44;3.78;;;1.40;;
78612;SDS011;67933;51.060;3.638;2023-02-26T17:23:10;6.88;;;2.30;;
78612;SDS011;67933;51.060;3.638;2023-02-26T17:25:40;5.00;;;1.17;;
78612;SDS011;67933;51.060;3.638;2023-02-26T17:28:14;2.22;;;0.98;;
78612;SDS011;67933;51.060;3.638;2023-02-26T17:30:51;0.95;;;0.80;;
78612;SDS011;67933;51.060;3.638;2023-02-26T17:33:17;2.03;;;1.65;;
78612;SDS011;67933;51.060;3.638;2023-02-26T17:35:43;3.60;;;0.98;;
78612;SDS011;67933;51.060;3.638;2023-02-26T17:38:09;3.42;;;1.00;;
78612;SDS011;67933;51.060;3.638;2023-02-26T17:43:03;1.65;;;1.00;;
78612;SDS011;67933;51.060;3.638;2023-02-26T17:45:30;1.48;;;1.10;;
78612;SDS011;67933;51.060;3.638;2023-02-26T17:47:56;2.53;;;0.98;;
78612;SDS011;67933;51.060;3.638;2023-02-26T17:52:53;2.53;;;1.10;;
78612;SDS011;67933;51.060;3.638;2023-02-26T17:55:19;2.60;;;1.17;;
78612;SDS011;67933;51.060;3.638;2023-02-26T17:57:44;3.55;;;1.50;;
78612;SDS011;67933;51.060;3.638;2023-02-26T18:00:10;3.22;;;1.05;;